sensor_id;sensor_type;location;lat;lon;timestamp;P1;durP1;ratioP1;P2;durP2;ratioP2
34639;SDS011;22600;48.186;11.526;2022-12-24T00:00:05;3.58;;;1.20;;
34639;SDS011;22600;48.186;11.526;2022-12-24T00:02:31;2.85;;;1.17;;
34639;SDS011;22600;48.186;11.526;2022-12-24T00:04:57;2.83;;;1.13;;
34639;SDS011;22600;48.186;11.526;2022-12-24T00:07:22;3.17;;;1.05;;
34639;SDS011;22600;48.186;11.526;2022-12-24T00:09:48;1.77;;;1.00;;
34639;SDS011;22600;48.186;11.526;2022-12-24T00:12:13;2.00;;;1.08;;
34639;SDS011;22600;48.186;11.526;2022-12-24T00:14:39;2.50;;;1.05;;
34639;SDS011;22600;48.186;11.526;2022-12-24T00:17:05;2.90;;;1.17;;
34639;SDS011;22600;48.186;11.526;2022-12-24T00:19:30;3.75;;;1.20;;
34639;SDS011;22600;48.186;11.526;2022-12-24T00:21:56;2.47;;;1.42;;
34639;SDS011;22600;48.186;11.526;2022-12-24T00:24:22;2.92;;;1.20;;
34639;SDS011;22600;48.186;11.526;2022-12-24T00:26:48;1.98;;;1.05;;
34639;SDS011;22600;48.186;11.526;2022-12-24T00:29:13;2.33;;;1.05;;
34639;SDS011;22600;48.186;11.526;2022-12-24T00:31:39;3.67;;;1.08;;
34639;SDS011;22600;48.186;11.526;2022-12-24T00:34:04;2.90;;;1.00;;
34639;SDS011;22600;48.186;11.526;2022-12-24T00:36:30;3.15;;;1.13;;
34639;SDS011;22600;48.186;11.526;2022-12-24T00:38:55;4.65;;;1.33;;
34639;SDS011;22600;48.186;11.526;2022-12-24T00:41:21;3.03;;;1.27;;
34639;SDS011;22600;48.186;11.526;2022-12-24T00:43:50;3.30;;;0.98;;
34639;SDS011;22600;48.186;11.526;2022-12-24T00:46:27;2.03;;;0.98;;
34639;SDS011;22600;48.186;11.526;2022-12-24T00:48:54;3.00;;;1.25;;
34639;SDS011;22600;48.186;11.526;2022-12-24T00:51:20;2.13;;;1.08;;
34639;SDS011;22600;48.186;11.526;2022-12-24T00:53:47;2.20;;;1.10;;
34639;SDS011;22600;48.186;11.526;2022-12-24T00:56:13;2.72;;;1.00;;
34639;SDS011;22600;48.186;11.526;2022-12-24T00:58:39;2.22;;;1.10;;
34639;SDS011;22600;48.186;11.526;2022-12-24T01:01:05;2.42;;;1.10;;
34639;SDS011;22600;48.186;11.526;2022-12-24T01:03:30;2.40;;;1.10;;
34639;SDS011;22600;48.186;11.526;2022-12-24T01:06:09;3.63;;;1.17;;
34639;SDS011;22600;48.186;11.526;2022-12-24T01:08:37;3.15;;;1.30;;
34639;SDS011;22600;48.186;11.526;2022-12-24T01:11:03;2.08;;;1.08;;
34639;SDS011;22600;48.186;11.526;2022-12-24T01:13:30;2.45;;;1.30;;
34639;SDS011;22600;48.186;11.526;2022-12-24T01:15:56;3.53;;;1.20;;
34639;SDS011;22600;48.186;11.526;2022-12-24T01:18:22;2.40;;;1.20;;
34639;SDS011;22600;48.186;11.526;2022-12-24T01:20:58;3.45;;;0.80;;
34639;SDS011;22600;48.186;11.526;2022-12-24T01:23:25;1.83;;;0.85;;
34639;SDS011;22600;48.186;11.526;2022-12-24T01:25:51;2.40;;;1.08;;
34639;SDS011;22600;48.186;11.526;2022-12-24T01:28:18;3.88;;;1.20;;
34639;SDS011;22600;48.186;11.526;2022-12-24T01:30:44;1.58;;;0.95;;
34639;SDS011;22600;48.186;11.526;2022-12-24T01:33:09;1.98;;;1.13;;
34639;SDS011;22600;48.186;11.526;2022-12-24T01:35:38;1.65;;;0.95;;
34639;SDS011;22600;48.186;11.526;2022-12-24T01:38:04;2.70;;;1.02;;
34639;SDS011;22600;48.186;11.526;2022-12-24T01:40:30;1.80;;;1.02;;
34639;SDS011;22600;48.186;11.526;2022-12-24T01:43:15;2.72;;;1.27;;
34639;SDS011;22600;48.186;11.526;2022-12-24T01:45:49;1.65;;;0.77;;
34639;SDS011;22600;48.186;11.526;2022-12-24T01:48:24;5.15;;;1.13;;
34639;SDS011;22600;48.186;11.526;2022-12-24T01:50:54;2.92;;;1.00;;
34639;SDS011;22600;48.186;11.526;2022-12-24T01:53:26;2.33;;;1.10;;
34639;SDS011;22600;48.186;11.526;2022-12-24T01:55:52;1.85;;;1.08;;
34639;SDS011;22600;48.186;11.526;2022-12-24T01:58:19;1.65;;;1.00;;
34639;SDS011;22600;48.186;11.526;2022-12-24T02:00:46;1.80;;;1.02;;
34639;SDS011;22600;48.186;11.526;2022-12-24T02:03:12;2.50;;;0.98;;
34639;SDS011;22600;48.186;11.526;2022-12-24T02:05:45;2.45;;;1.00;;
34639;SDS011;22600;48.186;11.526;2022-12-24T02:08:16;2.35;;;0.88;;
34639;SDS011;22600;48.186;11.526;2022-12-24T02:10:43;3.00;;;1.13;;
34639;SDS011;22600;48.186;11.526;2022-12-24T02:13:13;2.50;;;1.10;;
34639;SDS011;22600;48.186;11.526;2022-12-24T02:15:46;2.38;;;1.02;;
34639;SDS011;22600;48.186;11.526;2022-12-24T02:18:28;2.30;;;1.00;;
34639;SDS011;22600;48.186;11.526;2022-12-24T02:30:06;2.40;;;1.13;;
34639;SDS011;22600;48.186;11.526;2022-12-24T02:35:56;1.77;;;1.00;;
34639;SDS011;22600;48.186;11.526;2022-12-24T02:41:00;1.85;;;1.00;;
34639;SDS011;22600;48.186;11.526;2022-12-24T02:43:47;1.75;;;1.00;;
34639;SDS011;22600;48.186;11.526;2022-12-24T02:46:17;2.13;;;1.00;;
34639;SDS011;22600;48.186;11.526;2022-12-24T02:48:46;3.70;;;1.20;;
34639;SDS011;22600;48.186;11.526;2022-12-24T02:51:13;1.65;;;0.98;;
34639;SDS011;22600;48.186;11.526;2022-12-24T02:53:39;1.98;;;0.93;;
34639;SDS011;22600;48.186;11.526;2022-12-24T02:56:14;1.65;;;1.02;;
34639;SDS011;22600;48.186;11.526;2022-12-24T03:01:36;1.77;;;0.80;;
34639;SDS011;22600;48.186;11.526;2022-12-24T03:04:36;2.58;;;1.00;;
34639;SDS011;22600;48.186;11.526;2022-12-24T03:10:14;1.75;;;0.98;;
34639;SDS011;22600;48.186;11.526;2022-12-24T03:13:09;1.55;;;0.88;;
34639;SDS011;22600;48.186;11.526;2022-12-24T03:15:39;3.05;;;1.10;;
34639;SDS011;22600;48.186;11.526;2022-12-24T03:18:07;2.10;;;1.00;;
34639;SDS011;22600;48.186;11.526;2022-12-24T03:20:37;1.35;;;0.90;;
34639;SDS011;22600;48.186;11.526;2022-12-24T03:23:08;1.88;;;1.05;;
34639;SDS011;22600;48.186;11.526;2022-12-24T03:25:34;1.92;;;1.10;;
34639;SDS011;22600;48.186;11.526;2022-12-24T03:28:04;2.95;;;1.00;;
34639;SDS011;22600;48.186;11.526;2022-12-24T03:30:31;1.75;;;0.80;;
34639;SDS011;22600;48.186;11.526;2022-12-24T03:32:57;2.17;;;1.00;;
34639;SDS011;22600;48.186;11.526;2022-12-24T03:35:22;2.08;;;0.98;;
34639;SDS011;22600;48.186;11.526;2022-12-24T03:37:49;1.52;;;0.88;;
34639;SDS011;22600;48.186;11.526;2022-12-24T03:40:15;1.67;;;0.90;;
34639;SDS011;22600;48.186;11.526;2022-12-24T03:42:40;1.58;;;0.90;;
34639;SDS011;22600;48.186;11.526;2022-12-24T03:45:06;2.15;;;0.93;;
34639;SDS011;22600;48.186;11.526;2022-12-24T03:47:32;1.42;;;0.90;;
34639;SDS011;22600;48.186;11.526;2022-12-24T03:49:58;1.65;;;0.80;;
34639;SDS011;22600;48.186;11.526;2022-12-24T03:52:23;2.42;;;0.90;;
34639;SDS011;22600;48.186;11.526;2022-12-24T03:54:49;2.60;;;1.00;;
34639;SDS011;22600;48.186;11.526;2022-12-24T03:57:14;1.77;;;0.90;;
34639;SDS011;22600;48.186;11.526;2022-12-24T03:59:40;2.75;;;1.02;;
34639;SDS011;22600;48.186;11.526;2022-12-24T04:02:05;2.38;;;0.90;;
34639;SDS011;22600;48.186;11.526;2022-12-24T04:04:31;1.55;;;1.00;;
34639;SDS011;22600;48.186;11.526;2022-12-24T04:07:00;1.65;;;1.08;;
34639;SDS011;22600;48.186;11.526;2022-12-24T04:09:26;2.38;;;0.80;;
34639;SDS011;22600;48.186;11.526;2022-12-24T04:11:52;1.73;;;0.93;;
34639;SDS011;22600;48.186;11.526;2022-12-24T04:14:17;1.38;;;0.65;;
34639;SDS011;22600;48.186;11.526;2022-12-24T04:16:43;2.08;;;0.95;;
34639;SDS011;22600;48.186;11.526;2022-12-24T04:19:09;1.73;;;0.93;;
34639;SDS011;22600;48.186;11.526;2022-12-24T04:21:34;1.92;;;0.95;;
34639;SDS011;22600;48.186;11.526;2022-12-24T04:24:00;1.95;;;0.88;;
34639;SDS011;22600;48.186;11.526;2022-12-24T04:26:26;2.13;;;0.90;;
34639;SDS011;22600;48.186;11.526;2022-12-24T04:28:51;3.17;;;1.00;;
34639;SDS011;22600;48.186;11.526;2022-12-24T04:31:17;4.03;;;1.13;;
34639;SDS011;22600;48.186;11.526;2022-12-24T04:33:43;2.00;;;0.80;;
34639;SDS011;22600;48.186;11.526;2022-12-24T04:36:10;2.80;;;0.90;;
34639;SDS011;22600;48.186;11.526;2022-12-24T04:38:37;2.08;;;1.20;;
34639;SDS011;22600;48.186;11.526;2022-12-24T04:41:04;6.72;;;1.00;;
34639;SDS011;22600;48.186;11.526;2022-12-24T04:43:31;2.03;;;0.77;;
34639;SDS011;22600;48.186;11.526;2022-12-24T04:46:31;2.38;;;0.88;;
34639;SDS011;22600;48.186;11.526;2022-12-24T04:48:51;3.45;;;0.90;;
34639;SDS011;22600;48.186;11.526;2022-12-24T04:51:18;2.08;;;0.93;;
34639;SDS011;22600;48.186;11.526;2022-12-24T04:53:43;2.03;;;0.90;;
34639;SDS011;22600;48.186;11.526;2022-12-24T04:56:11;2.15;;;0.90;;
34639;SDS011;22600;48.186;11.526;2022-12-24T04:58:41;1.60;;;0.82;;
34639;SDS011;22600;48.186;11.526;2022-12-24T05:01:07;2.85;;;0.90;;
34639;SDS011;22600;48.186;11.526;2022-12-24T05:03:36;1.85;;;0.80;;
34639;SDS011;22600;48.186;11.526;2022-12-24T05:06:05;1.98;;;0.90;;
34639;SDS011;22600;48.186;11.526;2022-12-24T05:08:34;1.88;;;0.90;;
34639;SDS011;22600;48.186;11.526;2022-12-24T05:11:00;1.23;;;0.77;;
34639;SDS011;22600;48.186;11.526;2022-12-24T05:13:26;1.70;;;0.82;;
34639;SDS011;22600;48.186;11.526;2022-12-24T05:15:52;1.50;;;0.60;;
34639;SDS011;22600;48.186;11.526;2022-12-24T05:18:18;1.13;;;0.80;;
34639;SDS011;22600;48.186;11.526;2022-12-24T05:20:45;3.15;;;0.80;;
34639;SDS011;22600;48.186;11.526;2022-12-24T05:23:15;1.48;;;0.75;;
34639;SDS011;22600;48.186;11.526;2022-12-24T05:26:04;1.73;;;0.80;;
34639;SDS011;22600;48.186;11.526;2022-12-24T05:28:52;1.92;;;0.70;;
34639;SDS011;22600;48.186;11.526;2022-12-24T05:31:19;3.33;;;1.00;;
34639;SDS011;22600;48.186;11.526;2022-12-24T05:33:45;1.77;;;0.90;;
34639;SDS011;22600;48.186;11.526;2022-12-24T05:36:11;1.30;;;0.70;;
34639;SDS011;22600;48.186;11.526;2022-12-24T05:38:37;1.65;;;0.90;;
34639;SDS011;22600;48.186;11.526;2022-12-24T05:41:03;2.22;;;0.80;;
34639;SDS011;22600;48.186;11.526;2022-12-24T05:43:29;2.22;;;0.80;;
34639;SDS011;22600;48.186;11.526;2022-12-24T05:45:58;3.13;;;0.77;;
34639;SDS011;22600;48.186;11.526;2022-12-24T05:48:28;1.42;;;0.90;;
34639;SDS011;22600;48.186;11.526;2022-12-24T05:50:53;2.60;;;0.85;;
34639;SDS011;22600;48.186;11.526;2022-12-24T05:53:20;1.40;;;0.80;;
34639;SDS011;22600;48.186;11.526;2022-12-24T05:55:46;1.77;;;1.00;;
34639;SDS011;22600;48.186;11.526;2022-12-24T05:58:11;1.42;;;0.70;;
34639;SDS011;22600;48.186;11.526;2022-12-24T06:00:37;1.15;;;0.60;;
34639;SDS011;22600;48.186;11.526;2022-12-24T06:03:03;2.35;;;0.70;;
34639;SDS011;22600;48.186;11.526;2022-12-24T06:05:28;1.60;;;0.80;;
34639;SDS011;22600;48.186;11.526;2022-12-24T06:07:54;1.35;;;0.80;;
34639;SDS011;22600;48.186;11.526;2022-12-24T06:10:20;2.90;;;0.85;;
34639;SDS011;22600;48.186;11.526;2022-12-24T06:12:46;1.75;;;0.85;;
34639;SDS011;22600;48.186;11.526;2022-12-24T06:15:12;1.10;;;0.80;;
34639;SDS011;22600;48.186;11.526;2022-12-24T06:17:37;4.00;;;1.05;;
34639;SDS011;22600;48.186;11.526;2022-12-24T06:20:03;4.45;;;0.93;;
34639;SDS011;22600;48.186;11.526;2022-12-24T06:22:29;1.65;;;0.80;;
34639;SDS011;22600;48.186;11.526;2022-12-24T06:24:55;2.15;;;0.95;;
34639;SDS011;22600;48.186;11.526;2022-12-24T06:27:21;2.08;;;0.90;;
34639;SDS011;22600;48.186;11.526;2022-12-24T06:29:46;2.88;;;1.00;;
34639;SDS011;22600;48.186;11.526;2022-12-24T06:32:12;1.40;;;0.70;;
34639;SDS011;22600;48.186;11.526;2022-12-24T06:34:38;2.10;;;0.80;;
34639;SDS011;22600;48.186;11.526;2022-12-24T06:37:03;2.35;;;0.80;;
34639;SDS011;22600;48.186;11.526;2022-12-24T06:39:29;4.63;;;1.25;;
34639;SDS011;22600;48.186;11.526;2022-12-24T06:41:55;2.55;;;0.70;;
34639;SDS011;22600;48.186;11.526;2022-12-24T06:44:20;2.72;;;0.80;;
34639;SDS011;22600;48.186;11.526;2022-12-24T06:46:46;1.35;;;0.80;;
34639;SDS011;22600;48.186;11.526;2022-12-24T06:49:11;2.25;;;0.90;;
34639;SDS011;22600;48.186;11.526;2022-12-24T06:51:37;1.60;;;0.80;;
34639;SDS011;22600;48.186;11.526;2022-12-24T06:54:03;2.65;;;0.93;;
34639;SDS011;22600;48.186;11.526;2022-12-24T06:56:29;1.33;;;0.77;;
34639;SDS011;22600;48.186;11.526;2022-12-24T06:58:55;2.03;;;0.70;;
34639;SDS011;22600;48.186;11.526;2022-12-24T07:01:20;1.40;;;0.70;;
34639;SDS011;22600;48.186;11.526;2022-12-24T07:03:48;1.42;;;0.80;;
34639;SDS011;22600;48.186;11.526;2022-12-24T07:06:15;2.72;;;0.85;;
34639;SDS011;22600;48.186;11.526;2022-12-24T07:08:50;1.15;;;0.70;;
34639;SDS011;22600;48.186;11.526;2022-12-24T07:11:16;1.98;;;0.80;;
34639;SDS011;22600;48.186;11.526;2022-12-24T07:13:43;2.13;;;0.70;;
34639;SDS011;22600;48.186;11.526;2022-12-24T07:16:09;9.45;;;1.05;;
34639;SDS011;22600;48.186;11.526;2022-12-24T07:18:34;2.55;;;0.75;;
34639;SDS011;22600;48.186;11.526;2022-12-24T07:21:01;1.33;;;0.90;;
34639;SDS011;22600;48.186;11.526;2022-12-24T07:23:28;1.65;;;0.90;;
34639;SDS011;22600;48.186;11.526;2022-12-24T07:25:55;1.23;;;0.70;;
34639;SDS011;22600;48.186;11.526;2022-12-24T07:28:25;1.38;;;0.80;;
34639;SDS011;22600;48.186;11.526;2022-12-24T07:30:50;1.58;;;0.73;;
34639;SDS011;22600;48.186;11.526;2022-12-24T07:33:16;1.10;;;0.80;;
34639;SDS011;22600;48.186;11.526;2022-12-24T07:35:42;1.20;;;0.70;;
34639;SDS011;22600;48.186;11.526;2022-12-24T07:38:08;0.95;;;0.77;;
34639;SDS011;22600;48.186;11.526;2022-12-24T07:40:33;1.30;;;0.70;;
34639;SDS011;22600;48.186;11.526;2022-12-24T07:42:59;1.73;;;0.60;;
34639;SDS011;22600;48.186;11.526;2022-12-24T07:45:25;1.35;;;0.70;;
34639;SDS011;22600;48.186;11.526;2022-12-24T07:47:50;1.20;;;0.80;;
34639;SDS011;22600;48.186;11.526;2022-12-24T07:50:16;2.13;;;0.70;;
34639;SDS011;22600;48.186;11.526;2022-12-24T07:52:42;2.10;;;0.70;;
34639;SDS011;22600;48.186;11.526;2022-12-24T07:55:07;2.33;;;0.70;;
34639;SDS011;22600;48.186;11.526;2022-12-24T07:57:33;1.40;;;0.73;;
34639;SDS011;22600;48.186;11.526;2022-12-24T07:59:59;2.45;;;0.60;;
34639;SDS011;22600;48.186;11.526;2022-12-24T08:02:25;1.00;;;0.70;;
34639;SDS011;22600;48.186;11.526;2022-12-24T08:04:51;0.85;;;0.60;;
34639;SDS011;22600;48.186;11.526;2022-12-24T08:07:16;1.35;;;0.70;;
34639;SDS011;22600;48.186;11.526;2022-12-24T08:09:42;2.08;;;0.70;;
34639;SDS011;22600;48.186;11.526;2022-12-24T08:12:09;0.80;;;0.60;;
34639;SDS011;22600;48.186;11.526;2022-12-24T08:14:36;1.30;;;0.73;;
34639;SDS011;22600;48.186;11.526;2022-12-24T08:17:01;1.10;;;0.70;;
34639;SDS011;22600;48.186;11.526;2022-12-24T08:19:27;1.13;;;0.57;;
34639;SDS011;22600;48.186;11.526;2022-12-24T08:21:53;0.88;;;0.60;;
34639;SDS011;22600;48.186;11.526;2022-12-24T08:24:18;1.15;;;0.70;;
34639;SDS011;22600;48.186;11.526;2022-12-24T08:26:44;1.67;;;0.73;;
34639;SDS011;22600;48.186;11.526;2022-12-24T08:29:10;1.52;;;0.65;;
34639;SDS011;22600;48.186;11.526;2022-12-24T08:31:36;1.40;;;0.80;;
34639;SDS011;22600;48.186;11.526;2022-12-24T08:34:05;1.85;;;0.82;;
34639;SDS011;22600;48.186;11.526;2022-12-24T08:36:32;0.80;;;0.70;;
34639;SDS011;22600;48.186;11.526;2022-12-24T08:38:58;2.03;;;0.70;;
34639;SDS011;22600;48.186;11.526;2022-12-24T08:41:27;0.95;;;0.50;;
34639;SDS011;22600;48.186;11.526;2022-12-24T08:43:54;1.23;;;0.57;;
34639;SDS011;22600;48.186;11.526;2022-12-24T08:46:19;1.52;;;0.70;;
34639;SDS011;22600;48.186;11.526;2022-12-24T08:48:45;2.40;;;0.70;;
34639;SDS011;22600;48.186;11.526;2022-12-24T08:51:10;1.13;;;0.60;;
34639;SDS011;22600;48.186;11.526;2022-12-24T08:53:36;0.95;;;0.50;;
34639;SDS011;22600;48.186;11.526;2022-12-24T08:56:03;1.05;;;0.57;;
34639;SDS011;22600;48.186;11.526;2022-12-24T08:58:31;1.45;;;0.70;;
34639;SDS011;22600;48.186;11.526;2022-12-24T09:00:57;1.38;;;0.73;;
34639;SDS011;22600;48.186;11.526;2022-12-24T09:03:23;2.08;;;0.70;;
34639;SDS011;22600;48.186;11.526;2022-12-24T09:05:49;1.15;;;0.60;;
34639;SDS011;22600;48.186;11.526;2022-12-24T09:08:15;1.20;;;0.60;;
34639;SDS011;22600;48.186;11.526;2022-12-24T09:10:41;0.90;;;0.50;;
34639;SDS011;22600;48.186;11.526;2022-12-24T09:13:06;2.47;;;0.63;;
34639;SDS011;22600;48.186;11.526;2022-12-24T09:15:32;1.20;;;0.65;;
34639;SDS011;22600;48.186;11.526;2022-12-24T09:17:57;0.80;;;0.60;;
34639;SDS011;22600;48.186;11.526;2022-12-24T09:20:23;1.33;;;0.70;;
34639;SDS011;22600;48.186;11.526;2022-12-24T09:22:48;0.90;;;0.60;;
34639;SDS011;22600;48.186;11.526;2022-12-24T09:25:14;1.35;;;0.60;;
34639;SDS011;22600;48.186;11.526;2022-12-24T09:27:40;0.80;;;0.57;;
34639;SDS011;22600;48.186;11.526;2022-12-24T09:30:06;1.00;;;0.57;;
34639;SDS011;22600;48.186;11.526;2022-12-24T09:32:32;1.58;;;0.77;;
34639;SDS011;22600;48.186;11.526;2022-12-24T09:34:59;0.80;;;0.60;;
34639;SDS011;22600;48.186;11.526;2022-12-24T09:37:25;2.05;;;0.63;;
34639;SDS011;22600;48.186;11.526;2022-12-24T09:39:50;0.90;;;0.55;;
34639;SDS011;22600;48.186;11.526;2022-12-24T09:42:18;1.30;;;0.60;;
34639;SDS011;22600;48.186;11.526;2022-12-24T09:49:44;1.40;;;0.60;;
34639;SDS011;22600;48.186;11.526;2022-12-24T09:52:14;2.50;;;0.70;;
34639;SDS011;22600;48.186;11.526;2022-12-24T09:54:50;1.50;;;0.68;;
34639;SDS011;22600;48.186;11.526;2022-12-24T09:57:27;2.45;;;0.70;;
34639;SDS011;22600;48.186;11.526;2022-12-24T09:59:58;0.70;;;0.50;;
34639;SDS011;22600;48.186;11.526;2022-12-24T10:02:24;0.80;;;0.50;;
34639;SDS011;22600;48.186;11.526;2022-12-24T10:04:50;0.65;;;0.50;;
34639;SDS011;22600;48.186;11.526;2022-12-24T10:07:20;1.25;;;0.63;;
34639;SDS011;22600;48.186;11.526;2022-12-24T10:12:33;0.90;;;0.70;;
34639;SDS011;22600;48.186;11.526;2022-12-24T10:18:01;1.20;;;0.68;;
34639;SDS011;22600;48.186;11.526;2022-12-24T10:20:51;0.85;;;0.57;;
34639;SDS011;22600;48.186;11.526;2022-12-24T10:29:25;1.80;;;0.60;;
34639;SDS011;22600;48.186;11.526;2022-12-24T10:31:44;1.20;;;0.80;;
34639;SDS011;22600;48.186;11.526;2022-12-24T10:34:30;1.40;;;0.60;;
34639;SDS011;22600;48.186;11.526;2022-12-24T10:37:03;1.48;;;0.80;;
34639;SDS011;22600;48.186;11.526;2022-12-24T10:39:29;0.98;;;0.70;;
34639;SDS011;22600;48.186;11.526;2022-12-24T10:41:55;1.55;;;0.70;;
34639;SDS011;22600;48.186;11.526;2022-12-24T10:44:25;1.30;;;0.70;;
34639;SDS011;22600;48.186;11.526;2022-12-24T10:46:52;1.33;;;0.70;;
34639;SDS011;22600;48.186;11.526;2022-12-24T10:49:20;1.30;;;0.77;;
34639;SDS011;22600;48.186;11.526;2022-12-24T10:51:56;1.20;;;0.65;;
34639;SDS011;22600;48.186;11.526;2022-12-24T10:54:28;1.40;;;0.70;;
34639;SDS011;22600;48.186;11.526;2022-12-24T10:56:59;1.60;;;0.70;;
34639;SDS011;22600;48.186;11.526;2022-12-24T11:01:56;8.43;;;1.30;;
34639;SDS011;22600;48.186;11.526;2022-12-24T11:04:27;7.13;;;1.40;;
34639;SDS011;22600;48.186;11.526;2022-12-24T11:06:56;7.75;;;1.30;;
34639;SDS011;22600;48.186;11.526;2022-12-24T11:09:33;6.97;;;1.38;;
34639;SDS011;22600;48.186;11.526;2022-12-24T11:12:05;6.95;;;1.30;;
34639;SDS011;22600;48.186;11.526;2022-12-24T11:14:42;9.57;;;1.50;;
34639;SDS011;22600;48.186;11.526;2022-12-24T11:17:15;6.32;;;1.35;;
34639;SDS011;22600;48.186;11.526;2022-12-24T11:19:46;5.15;;;1.40;;
34639;SDS011;22600;48.186;11.526;2022-12-24T11:22:17;9.38;;;1.50;;
34639;SDS011;22600;48.186;11.526;2022-12-24T11:24:58;9.45;;;1.60;;
34639;SDS011;22600;48.186;11.526;2022-12-24T11:27:46;4.18;;;1.10;;
34639;SDS011;22600;48.186;11.526;2022-12-24T11:35:24;5.43;;;1.40;;
34639;SDS011;22600;48.186;11.526;2022-12-24T11:43:02;5.47;;;1.30;;
34639;SDS011;22600;48.186;11.526;2022-12-24T11:45:29;6.63;;;1.10;;
34639;SDS011;22600;48.186;11.526;2022-12-24T11:47:56;5.15;;;1.23;;
34639;SDS011;22600;48.186;11.526;2022-12-24T11:58:41;3.65;;;1.30;;
34639;SDS011;22600;48.186;11.526;2022-12-24T12:01:23;5.32;;;1.42;;
34639;SDS011;22600;48.186;11.526;2022-12-24T12:03:59;4.65;;;1.20;;
34639;SDS011;22600;48.186;11.526;2022-12-24T12:06:53;4.88;;;1.10;;
34639;SDS011;22600;48.186;11.526;2022-12-24T12:09:20;5.65;;;1.35;;
34639;SDS011;22600;48.186;11.526;2022-12-24T12:11:52;6.40;;;1.40;;
34639;SDS011;22600;48.186;11.526;2022-12-24T12:14:33;6.35;;;1.60;;
34639;SDS011;22600;48.186;11.526;2022-12-24T12:20:06;7.38;;;1.33;;
34639;SDS011;22600;48.186;11.526;2022-12-24T12:22:41;4.88;;;1.38;;
34639;SDS011;22600;48.186;11.526;2022-12-24T12:28:14;4.65;;;1.13;;
34639;SDS011;22600;48.186;11.526;2022-12-24T12:30:49;4.97;;;1.00;;
34639;SDS011;22600;48.186;11.526;2022-12-24T12:33:26;4.97;;;1.23;;
34639;SDS011;22600;48.186;11.526;2022-12-24T12:36:03;5.30;;;1.20;;
34639;SDS011;22600;48.186;11.526;2022-12-24T12:38:31;4.68;;;1.00;;
34639;SDS011;22600;48.186;11.526;2022-12-24T12:49:14;4.95;;;1.00;;
34639;SDS011;22600;48.186;11.526;2022-12-24T12:54:47;2.40;;;1.00;;
34639;SDS011;22600;48.186;11.526;2022-12-24T12:57:27;3.40;;;0.93;;
34639;SDS011;22600;48.186;11.526;2022-12-24T13:00:00;3.03;;;1.20;;
34639;SDS011;22600;48.186;11.526;2022-12-24T13:05:24;2.83;;;0.95;;
34639;SDS011;22600;48.186;11.526;2022-12-24T13:16:23;2.80;;;1.13;;
34639;SDS011;22600;48.186;11.526;2022-12-24T13:22:12;4.05;;;0.93;;
34639;SDS011;22600;48.186;11.526;2022-12-24T13:24:40;4.20;;;1.00;;
34639;SDS011;22600;48.186;11.526;2022-12-24T13:27:18;3.53;;;1.08;;
34639;SDS011;22600;48.186;11.526;2022-12-24T13:34:56;1.80;;;1.00;;
34639;SDS011;22600;48.186;11.526;2022-12-24T13:42:45;2.72;;;1.00;;
34639;SDS011;22600;48.186;11.526;2022-12-24T13:50:48;3.53;;;1.20;;
34639;SDS011;22600;48.186;11.526;2022-12-24T13:58:54;2.25;;;0.80;;
34639;SDS011;22600;48.186;11.526;2022-12-24T14:04:08;2.47;;;0.98;;
34639;SDS011;22600;48.186;11.526;2022-12-24T14:06:47;4.35;;;1.05;;
34639;SDS011;22600;48.186;11.526;2022-12-24T14:09:15;3.17;;;1.13;;
34639;SDS011;22600;48.186;11.526;2022-12-24T14:14:30;3.50;;;1.00;;
34639;SDS011;22600;48.186;11.526;2022-12-24T14:17:13;3.00;;;1.02;;
34639;SDS011;22600;48.186;11.526;2022-12-24T14:19:43;3.70;;;0.98;;
34639;SDS011;22600;48.186;11.526;2022-12-24T14:32:35;2.97;;;1.13;;
34639;SDS011;22600;48.186;11.526;2022-12-24T14:37:30;2.00;;;0.88;;
34639;SDS011;22600;48.186;11.526;2022-12-24T14:39:56;2.55;;;0.93;;
34639;SDS011;22600;48.186;11.526;2022-12-24T14:42:28;4.47;;;0.90;;
34639;SDS011;22600;48.186;11.526;2022-12-24T14:45:02;2.08;;;0.90;;
34639;SDS011;22600;48.186;11.526;2022-12-24T14:47:33;4.07;;;0.90;;
34639;SDS011;22600;48.186;11.526;2022-12-24T14:55:47;3.53;;;1.00;;
34639;SDS011;22600;48.186;11.526;2022-12-24T14:58:18;2.67;;;1.20;;
34639;SDS011;22600;48.186;11.526;2022-12-24T15:00:47;3.22;;;0.90;;
34639;SDS011;22600;48.186;11.526;2022-12-24T15:03:14;3.75;;;1.00;;
34639;SDS011;22600;48.186;11.526;2022-12-24T15:05:41;2.70;;;1.00;;
34639;SDS011;22600;48.186;11.526;2022-12-24T15:08:08;4.45;;;1.10;;
34639;SDS011;22600;48.186;11.526;2022-12-24T15:10:39;2.13;;;1.00;;
34639;SDS011;22600;48.186;11.526;2022-12-24T15:13:08;3.05;;;1.00;;
34639;SDS011;22600;48.186;11.526;2022-12-24T15:15:46;2.85;;;1.20;;
34639;SDS011;22600;48.186;11.526;2022-12-24T15:18:17;2.55;;;1.00;;
34639;SDS011;22600;48.186;11.526;2022-12-24T15:20:47;2.25;;;1.05;;
34639;SDS011;22600;48.186;11.526;2022-12-24T15:23:19;2.70;;;1.08;;
34639;SDS011;22600;48.186;11.526;2022-12-24T15:25:49;4.00;;;1.23;;
34639;SDS011;22600;48.186;11.526;2022-12-24T15:28:16;2.28;;;1.23;;
34639;SDS011;22600;48.186;11.526;2022-12-24T15:30:43;4.18;;;1.30;;
34639;SDS011;22600;48.186;11.526;2022-12-24T15:33:09;2.25;;;1.10;;
34639;SDS011;22600;48.186;11.526;2022-12-24T15:38:10;2.05;;;0.80;;
34639;SDS011;22600;48.186;11.526;2022-12-24T15:40:48;2.80;;;1.10;;
34639;SDS011;22600;48.186;11.526;2022-12-24T15:43:14;2.58;;;1.30;;
34639;SDS011;22600;48.186;11.526;2022-12-24T15:45:41;2.97;;;1.30;;
34639;SDS011;22600;48.186;11.526;2022-12-24T15:48:24;2.97;;;1.10;;
34639;SDS011;22600;48.186;11.526;2022-12-24T15:50:52;5.03;;;1.20;;
34639;SDS011;22600;48.186;11.526;2022-12-24T15:53:22;2.70;;;1.00;;
34639;SDS011;22600;48.186;11.526;2022-12-24T15:55:59;5.10;;;1.50;;
34639;SDS011;22600;48.186;11.526;2022-12-24T15:58:29;3.50;;;1.10;;
34639;SDS011;22600;48.186;11.526;2022-12-24T16:01:01;4.75;;;1.40;;
34639;SDS011;22600;48.186;11.526;2022-12-24T16:06:14;3.78;;;1.20;;
34639;SDS011;22600;48.186;11.526;2022-12-24T16:08:40;3.00;;;1.40;;
34639;SDS011;22600;48.186;11.526;2022-12-24T16:11:25;4.85;;;1.40;;
34639;SDS011;22600;48.186;11.526;2022-12-24T16:14:12;6.10;;;1.40;;
34639;SDS011;22600;48.186;11.526;2022-12-24T16:16:45;2.55;;;1.20;;
34639;SDS011;22600;48.186;11.526;2022-12-24T16:19:24;5.23;;;1.17;;
34639;SDS011;22600;48.186;11.526;2022-12-24T16:21:59;4.03;;;1.42;;
34639;SDS011;22600;48.186;11.526;2022-12-24T16:24:49;5.05;;;1.42;;
34639;SDS011;22600;48.186;11.526;2022-12-24T16:27:19;4.50;;;1.37;;
34639;SDS011;22600;48.186;11.526;2022-12-24T16:29:45;3.50;;;1.35;;
34639;SDS011;22600;48.186;11.526;2022-12-24T16:32:27;3.47;;;1.35;;
34639;SDS011;22600;48.186;11.526;2022-12-24T16:34:58;3.05;;;1.25;;
34639;SDS011;22600;48.186;11.526;2022-12-24T16:37:25;4.20;;;1.50;;
34639;SDS011;22600;48.186;11.526;2022-12-24T16:39:50;3.22;;;1.40;;
34639;SDS011;22600;48.186;11.526;2022-12-24T16:42:16;4.05;;;1.25;;
34639;SDS011;22600;48.186;11.526;2022-12-24T16:45:01;3.03;;;1.30;;
34639;SDS011;22600;48.186;11.526;2022-12-24T16:47:28;4.18;;;1.40;;
34639;SDS011;22600;48.186;11.526;2022-12-24T16:49:57;2.40;;;1.25;;
34639;SDS011;22600;48.186;11.526;2022-12-24T16:52:24;3.80;;;1.27;;
34639;SDS011;22600;48.186;11.526;2022-12-24T16:54:52;2.97;;;1.48;;
34639;SDS011;22600;48.186;11.526;2022-12-24T16:57:18;2.28;;;1.27;;
34639;SDS011;22600;48.186;11.526;2022-12-24T16:59:45;3.55;;;1.60;;
34639;SDS011;22600;48.186;11.526;2022-12-24T17:02:12;2.60;;;1.30;;
34639;SDS011;22600;48.186;11.526;2022-12-24T17:04:39;3.95;;;1.30;;